createdAt,value
2018-10-03T00:01:23.997Z,97.40
2018-10-03T00:03:53.250Z,97.30
2018-10-03T00:06:22.496Z,97.30
2018-10-03T00:08:51.643Z,97.30
2018-10-03T00:11:20.751Z,97.40
2018-10-03T00:13:49.983Z,97.30
2018-10-03T00:16:19.270Z,97.40
2018-10-03T00:18:48.526Z,97.40
2018-10-03T00:21:17.796Z,97.50
2018-10-03T00:23:47.325Z,97.60
2018-10-03T00:26:17.668Z,97.50
2018-10-03T00:28:47.150Z,97.60
2018-10-03T00:31:16.238Z,97.60
2018-10-03T00:33:45.296Z,97.60
2018-10-03T00:36:14.757Z,97.70
2018-10-03T00:38:43.897Z,97.70
2018-10-03T00:41:13.223Z,97.80
2018-10-03T00:43:43.242Z,97.70
2018-10-03T00:46:12.686Z,97.70
2018-10-03T00:48:42.318Z,97.80
2018-10-03T00:51:11.673Z,97.80
2018-10-03T00:53:41.652Z,97.80
2018-10-03T00:56:11.068Z,97.80
2018-10-03T00:58:40.215Z,97.90
2018-10-03T01:01:09.695Z,97.80
2018-10-03T01:03:39.001Z,97.90
2018-10-03T01:06:08.218Z,97.90
2018-10-03T01:08:37.230Z,97.90
2018-10-03T01:11:06.334Z,97.90
2018-10-03T01:13:36.345Z,97.90
2018-10-03T01:16:05.568Z,98.00
2018-10-03T01:18:34.973Z,98.00
2018-10-03T01:21:04.286Z,98.00
2018-10-03T01:23:33.448Z,98.00
2018-10-03T01:26:02.805Z,98.00
2018-10-03T01:28:32.104Z,98.00
2018-10-03T01:31:01.854Z,98.00
2018-10-03T01:33:31.082Z,98.00
2018-10-03T01:36:00.341Z,98.00
2018-10-03T01:38:29.898Z,98.00
2018-10-03T01:40:59.359Z,98.00
2018-10-03T01:43:28.401Z,98.10
2018-10-03T01:45:57.489Z,98.20
2018-10-03T01:48:27.006Z,98.20
2018-10-03T01:50:56.236Z,98.20
2018-10-03T01:53:25.269Z,98.10
2018-10-03T01:55:54.506Z,98.00
2018-10-03T01:58:23.594Z,98.10
2018-10-03T02:00:52.621Z,98.00
2018-10-03T02:03:22.186Z,98.20
2018-10-03T02:05:51.277Z,98.10
2018-10-03T02:08:20.716Z,98.10
2018-10-03T02:10:49.803Z,98.10
2018-10-03T02:13:18.906Z,98.30
2018-10-03T02:15:48.146Z,98.10
2018-10-03T02:18:17.130Z,98.10
2018-10-03T02:20:46.195Z,98.20
2018-10-03T02:23:15.369Z,98.10
2018-10-03T02:25:44.820Z,98.10
2018-10-03T02:28:14.249Z,98.20
2018-10-03T02:30:43.414Z,98.20
2018-10-03T02:33:12.669Z,98.10
2018-10-03T02:35:41.840Z,98.10
2018-10-03T02:38:10.974Z,98.10
2018-10-03T02:40:40.342Z,98.10
2018-10-03T02:43:09.528Z,98.10
2018-10-03T02:45:38.760Z,98.10
2018-10-03T02:48:08.153Z,98.10
2018-10-03T02:50:37.187Z,98.10
2018-10-03T02:53:06.186Z,98.50
2018-10-03T02:55:35.514Z,98.00
2018-10-03T02:58:04.654Z,98.20
2018-10-03T03:00:33.890Z,98.10
2018-10-03T03:03:03.309Z,98.10
2018-10-03T03:05:32.370Z,98.00
2018-10-03T03:08:01.637Z,97.90
2018-10-03T03:10:30.849Z,98.00
2018-10-03T03:12:59.948Z,98.00
2018-10-03T03:15:29.104Z,98.00
2018-10-03T03:17:58.187Z,98.10
2018-10-03T03:20:27.494Z,98.10
2018-10-03T03:22:56.441Z,98.10
2018-10-03T03:25:25.571Z,98.00
2018-10-03T03:27:55.075Z,98.10
2018-10-03T03:30:24.155Z,98.10
2018-10-03T03:32:53.585Z,98.00
2018-10-03T03:35:22.685Z,98.10
2018-10-03T03:37:51.842Z,98.30
2018-10-03T03:40:21.028Z,98.30
2018-10-03T03:42:50.158Z,98.30
2018-10-03T03:45:19.305Z,98.20
2018-10-03T03:47:48.349Z,98.30
2018-10-03T03:50:17.576Z,98.40
2018-10-03T03:52:46.519Z,98.30
2018-10-03T03:55:15.670Z,98.30
2018-10-03T03:57:44.756Z,98.30
2018-10-03T04:00:14.219Z,98.40
2018-10-03T04:02:43.818Z,98.40
2018-10-03T04:05:13.158Z,98.50
2018-10-03T04:07:42.458Z,98.50
2018-10-03T04:10:11.671Z,98.50
2018-10-03T04:12:40.601Z,98.60
2018-10-03T04:15:09.849Z,98.50
2018-10-03T04:17:39.164Z,98.60
2018-10-03T04:20:08.354Z,98.60
2018-10-03T04:22:37.483Z,98.60
2018-10-03T04:25:06.547Z,98.50
2018-10-03T04:27:35.618Z,98.60
2018-10-03T04:30:05.044Z,98.60
2018-10-03T04:32:34.086Z,98.50
2018-10-03T04:35:03.097Z,98.90
2018-10-03T04:37:32.217Z,98.70
2018-10-03T04:40:01.803Z,98.60
2018-10-03T04:42:31.066Z,98.60
2018-10-03T04:45:00.054Z,98.60
2018-10-03T04:47:29.009Z,98.50
2018-10-03T04:49:58.334Z,98.50
2018-10-03T04:52:27.341Z,98.50
2018-10-03T04:54:56.917Z,98.60
2018-10-03T04:57:26.320Z,98.60
2018-10-03T04:59:55.790Z,98.60
2018-10-03T05:02:25.057Z,98.60
2018-10-03T05:04:54.530Z,98.70
2018-10-03T05:07:23.687Z,98.70
2018-10-03T05:09:52.761Z,98.60
2018-10-03T05:12:21.825Z,98.60
2018-10-03T05:14:50.991Z,99.00
2018-10-03T05:17:20.756Z,98.80
2018-10-03T05:19:50.014Z,98.80
2018-10-03T05:22:19.305Z,98.80
2018-10-03T05:24:48.793Z,98.70
2018-10-03T05:27:17.870Z,98.60
2018-10-03T05:29:47.394Z,98.60
2018-10-03T05:32:16.444Z,98.70
2018-10-03T05:34:45.577Z,98.60
2018-10-03T05:37:14.766Z,98.50
2018-10-03T05:39:43.822Z,98.50
2018-10-03T05:42:13.077Z,98.30
2018-10-03T05:44:42.055Z,98.30
2018-10-03T05:47:11.072Z,98.20
2018-10-03T05:49:40.099Z,98.00
2018-10-03T05:52:09.599Z,98.10
2018-10-03T05:54:38.714Z,97.90
2018-10-03T05:57:08.662Z,97.80
2018-10-03T05:59:38.126Z,97.70
2018-10-03T06:02:07.214Z,97.50
2018-10-03T06:04:36.508Z,97.40
2018-10-03T06:07:05.770Z,97.20
2018-10-03T06:09:34.785Z,97.30
2018-10-03T06:12:04.012Z,97.30
2018-10-03T06:14:33.030Z,97.40
2018-10-03T06:17:02.025Z,97.40
2018-10-03T06:19:31.583Z,97.60
2018-10-03T06:22:01.160Z,97.70
2018-10-03T06:24:30.908Z,97.90
2018-10-03T06:27:00.162Z,97.90
2018-10-03T06:29:29.370Z,97.90
2018-10-03T06:31:58.416Z,98.00
2018-10-03T06:34:27.529Z,98.00
2018-10-03T06:36:56.727Z,98.00
2018-10-03T06:39:25.908Z,98.00
2018-10-03T06:41:54.961Z,97.90
2018-10-03T06:44:24.599Z,97.90
2018-10-03T06:46:54.044Z,97.90
2018-10-03T06:49:23.310Z,97.90
2018-10-03T06:51:52.753Z,97.80
2018-10-03T06:54:21.983Z,97.80
2018-10-03T06:56:51.203Z,97.70
2018-10-03T06:59:20.230Z,97.60
2018-10-03T07:01:49.494Z,97.40
2018-10-03T07:04:19.041Z,97.30
2018-10-03T07:06:48.422Z,97.10
2018-10-03T07:09:17.597Z,97.00
2018-10-03T07:11:46.734Z,96.80
2018-10-03T07:14:16.039Z,96.80
2018-10-03T07:16:45.282Z,96.60
2018-10-03T07:19:14.317Z,96.60
2018-10-03T07:21:43.531Z,96.50
2018-10-03T07:24:12.499Z,96.50
2018-10-03T07:26:42.363Z,96.60
2018-10-03T07:29:11.515Z,96.50
2018-10-03T07:31:41.086Z,96.10
2018-10-03T07:34:09.981Z,96.00
2018-10-03T07:36:39.291Z,95.80
2018-10-03T07:39:09.459Z,95.60
2018-10-03T07:41:38.673Z,95.20
2018-10-03T07:44:07.959Z,94.90
2018-10-03T07:46:37.037Z,94.70
2018-10-03T07:49:06.406Z,94.60
2018-10-03T07:51:35.501Z,94.70
2018-10-03T07:54:04.709Z,94.70
2018-10-03T07:56:33.834Z,94.50
2018-10-03T07:59:03.732Z,94.80
2018-10-03T08:01:32.909Z,94.60
2018-10-03T08:04:02.005Z,94.70
2018-10-03T08:06:31.158Z,94.70
2018-10-03T08:09:00.516Z,94.40
2018-10-03T08:11:29.490Z,94.40
2018-10-03T08:13:58.588Z,92.90
2018-10-03T08:16:28.193Z,89.30
2018-10-03T08:18:57.253Z,88.40
2018-10-03T08:21:26.507Z,86.60
2018-10-03T08:23:55.513Z,87.50
2018-10-03T08:26:24.705Z,86.50
2018-10-03T08:28:53.662Z,84.10
2018-10-03T08:31:22.791Z,84.70
2018-10-03T08:33:51.760Z,80.40
2018-10-03T08:36:20.942Z,81.20
2018-10-03T08:38:50.304Z,82.20
2018-10-03T08:41:19.345Z,80.80
2018-10-03T08:43:48.630Z,81.90
2018-10-03T08:46:18.204Z,82.90
2018-10-03T08:48:47.179Z,81.40
2018-10-03T08:51:16.137Z,80.00
2018-10-03T08:53:45.287Z,75.70
2018-10-03T08:56:14.438Z,74.60
2018-10-03T08:58:43.821Z,63.70
2018-10-03T09:01:12.857Z,55.30
2018-10-03T09:03:41.715Z,52.40
2018-10-03T09:06:10.821Z,49.00
2018-10-03T09:08:39.899Z,47.20
2018-10-03T09:11:09.001Z,45.40
2018-10-03T09:13:37.993Z,44.80
2018-10-03T09:16:07.082Z,47.70
2018-10-03T09:18:36.225Z,45.80
2018-10-03T09:21:05.481Z,46.40
2018-10-03T09:23:34.642Z,48.10
2018-10-03T09:26:03.753Z,48.60
2018-10-03T09:28:32.893Z,43.00
2018-10-03T09:31:02.014Z,44.90
2018-10-03T09:33:31.066Z,43.40
2018-10-03T09:36:00.282Z,40.50
2018-10-03T09:38:29.590Z,36.80
2018-10-03T09:40:58.618Z,35.70
2018-10-03T09:43:27.807Z,37.60
2018-10-03T09:45:56.839Z,38.30
2018-10-03T09:48:25.819Z,40.70
2018-10-03T09:50:54.894Z,42.80
2018-10-03T09:53:23.824Z,46.50
2018-10-03T09:55:52.839Z,45.30
2018-10-03T09:58:21.841Z,42.90
2018-10-03T10:00:56.240Z,39.10
2018-10-03T10:03:25.706Z,37.00
2018-10-03T10:05:54.953Z,35.80
2018-10-03T10:08:24.078Z,33.10
2018-10-03T10:10:53.186Z,33.30
2018-10-03T10:13:22.335Z,32.20
2018-10-03T10:15:52.100Z,32.70
2018-10-03T10:18:21.685Z,34.00
2018-10-03T10:20:50.843Z,36.90
2018-10-03T10:23:20.285Z,37.80
2018-10-03T10:25:49.279Z,39.10
2018-10-03T10:28:18.370Z,39.60
2018-10-03T10:30:47.433Z,39.90
2018-10-03T10:33:16.666Z,39.70
2018-10-03T10:35:45.541Z,39.30
2018-10-03T10:38:14.913Z,40.40
2018-10-03T10:40:44.012Z,38.90
2018-10-03T10:43:13.287Z,40.20
2018-10-03T10:45:42.170Z,41.00
2018-10-03T10:48:11.262Z,42.50
2018-10-03T10:50:40.235Z,42.80
2018-10-03T10:53:09.601Z,43.00
2018-10-03T10:55:38.994Z,43.00
2018-10-03T10:58:08.307Z,44.30
2018-10-03T11:00:37.499Z,42.80
2018-10-03T11:03:07.108Z,42.70
2018-10-03T11:05:36.335Z,43.70
2018-10-03T11:08:05.447Z,42.10
2018-10-03T11:10:34.523Z,42.70
2018-10-03T11:13:03.890Z,41.00
2018-10-03T11:15:32.963Z,41.50
2018-10-03T11:18:02.359Z,41.40
2018-10-03T11:20:31.537Z,42.00
2018-10-03T11:23:00.881Z,42.60
2018-10-03T11:25:30.141Z,39.60
2018-10-03T11:27:59.171Z,39.30
2018-10-03T11:30:28.202Z,42.20
2018-10-03T11:32:57.386Z,41.50
2018-10-03T11:35:26.717Z,41.80
2018-10-03T11:37:55.822Z,41.10
2018-10-03T11:40:24.793Z,41.60
2018-10-03T11:42:54.079Z,43.80
2018-10-03T11:45:23.685Z,43.30
2018-10-03T11:47:52.821Z,43.20
2018-10-03T11:50:22.227Z,43.30
2018-10-03T11:52:51.753Z,42.50
2018-10-03T11:55:21.077Z,43.40
2018-10-03T11:57:50.360Z,44.70
2018-10-03T12:00:19.412Z,44.80
2018-10-03T12:02:48.786Z,45.90
2018-10-03T12:05:17.729Z,47.00
2018-10-03T12:07:46.702Z,47.50
2018-10-03T12:10:16.317Z,47.20
2018-10-03T12:12:45.354Z,48.10
2018-10-03T12:15:14.255Z,48.50
2018-10-03T12:17:43.280Z,48.80
2018-10-03T12:20:12.362Z,49.30
2018-10-03T12:22:41.667Z,49.80
2018-10-03T12:25:11.227Z,49.90
2018-10-03T12:27:40.274Z,50.50
2018-10-03T12:30:09.588Z,50.90
2018-10-03T12:32:38.541Z,51.10
2018-10-03T12:35:07.977Z,51.50
2018-10-03T12:37:37.079Z,52.50
2018-10-03T12:40:06.287Z,53.00
2018-10-03T12:42:35.453Z,53.60
2018-10-03T12:45:04.745Z,52.30
2018-10-03T12:47:34.133Z,53.80
2018-10-03T12:50:03.330Z,54.20
2018-10-03T12:52:32.380Z,54.10
2018-10-03T12:55:01.623Z,54.30
2018-10-03T12:57:30.637Z,55.40
2018-10-03T12:59:59.870Z,55.00
2018-10-03T13:02:29.075Z,54.70
2018-10-03T13:04:58.179Z,54.20
2018-10-03T13:07:27.124Z,54.80
2018-10-03T13:09:56.244Z,55.60
2018-10-03T13:12:25.410Z,56.30
2018-10-03T13:14:54.489Z,56.20
2018-10-03T13:17:23.377Z,56.40
2018-10-03T13:19:52.548Z,56.30
2018-10-03T13:22:22.313Z,55.60
2018-10-03T13:24:51.713Z,56.00
2018-10-03T13:27:20.681Z,56.90
2018-10-03T13:29:49.657Z,57.30
2018-10-03T13:32:19.269Z,57.10
2018-10-03T13:34:48.312Z,58.20
2018-10-03T13:37:17.458Z,57.40
2018-10-03T13:39:46.871Z,57.80
2018-10-03T13:42:15.762Z,57.90
2018-10-03T13:44:45.106Z,57.30
2018-10-03T13:47:14.694Z,57.00
2018-10-03T13:49:43.830Z,57.30
2018-10-03T13:52:13.417Z,57.80
2018-10-03T13:54:42.418Z,58.10
2018-10-03T13:57:11.425Z,58.00
2018-10-03T13:59:40.733Z,58.70
2018-10-03T14:02:09.902Z,58.80
2018-10-03T14:04:38.977Z,59.40
2018-10-03T14:07:08.137Z,59.90
2018-10-03T14:09:37.603Z,60.00
2018-10-03T14:12:07.053Z,60.20
2018-10-03T14:14:36.122Z,60.70
2018-10-03T14:17:05.398Z,60.30
2018-10-03T14:19:34.705Z,60.60
2018-10-03T14:22:04.339Z,60.60
2018-10-03T14:24:33.347Z,61.00
2018-10-03T14:27:02.493Z,61.20
2018-10-03T14:29:32.028Z,61.80
2018-10-03T14:32:01.564Z,62.00
2018-10-03T14:34:30.593Z,62.10
2018-10-03T14:36:59.641Z,62.90
2018-10-03T14:39:28.752Z,62.90
2018-10-03T14:41:57.925Z,63.10
2018-10-03T14:44:27.555Z,63.50
2018-10-03T14:46:56.778Z,63.50
2018-10-03T14:49:26.115Z,64.00
2018-10-03T14:51:55.485Z,64.00
2018-10-03T14:54:24.908Z,64.50
2018-10-03T14:56:54.049Z,64.90
2018-10-03T14:59:23.439Z,64.80
2018-10-03T15:01:52.545Z,65.20
2018-10-03T15:04:21.846Z,65.50
2018-10-03T15:06:51.144Z,65.30
2018-10-03T15:09:20.137Z,65.60
2018-10-03T15:11:49.094Z,66.00
2018-10-03T15:14:18.393Z,66.00
2018-10-03T15:16:47.371Z,66.10
2018-10-03T15:19:16.414Z,66.80
2018-10-03T15:21:45.515Z,66.90
2018-10-03T15:24:14.820Z,67.10
2018-10-03T15:26:44.036Z,67.30
2018-10-03T15:29:14.001Z,67.50
2018-10-03T15:31:43.034Z,67.60
2018-10-03T15:34:12.340Z,67.80
2018-10-03T15:36:41.584Z,68.20
2018-10-03T15:39:10.995Z,68.40
2018-10-03T15:41:40.099Z,68.20
2018-10-03T15:44:09.248Z,68.60
2018-10-03T15:46:38.345Z,68.70
2018-10-03T15:49:07.477Z,68.70
2018-10-03T15:51:36.653Z,69.00
2018-10-03T15:54:05.671Z,69.30
2018-10-03T15:56:34.829Z,69.30
2018-10-03T15:59:04.331Z,69.60
2018-10-03T16:01:33.687Z,69.70
2018-10-03T16:04:02.729Z,69.60
2018-10-03T16:06:31.990Z,70.10
2018-10-03T16:09:00.966Z,70.00
2018-10-03T16:11:30.369Z,70.00
2018-10-03T16:13:59.801Z,70.00
2018-10-03T16:16:28.889Z,70.40
2018-10-03T16:18:57.874Z,70.60
2018-10-03T16:21:27.341Z,70.50
2018-10-03T16:23:56.493Z,70.80
2018-10-03T16:26:26.027Z,70.60
2018-10-03T16:28:55.393Z,70.90
2018-10-03T16:31:24.645Z,70.80
2018-10-03T16:33:53.637Z,71.00
2018-10-03T16:36:22.725Z,71.00
2018-10-03T16:38:53.153Z,71.30
2018-10-03T16:41:22.252Z,71.20
2018-10-03T16:43:51.726Z,70.90
2018-10-03T16:46:20.771Z,71.20
2018-10-03T16:48:50.049Z,71.20
2018-10-03T16:51:19.063Z,71.40
2018-10-03T16:53:48.155Z,71.60
2018-10-03T16:56:17.285Z,71.30
2018-10-03T16:58:47.250Z,71.40
2018-10-03T17:01:16.593Z,71.80
2018-10-03T17:03:45.535Z,71.50
2018-10-03T17:06:14.557Z,71.70
2018-10-03T17:08:43.530Z,71.70
2018-10-03T17:11:12.747Z,71.50
2018-10-03T17:13:53.378Z,71.60
2018-10-03T17:16:22.574Z,72.00
2018-10-03T17:18:51.755Z,71.70
2018-10-03T17:21:21.197Z,72.10
2018-10-03T17:23:50.489Z,71.80
2018-10-03T17:26:19.749Z,72.00
2018-10-03T17:28:49.254Z,71.90
2018-10-03T17:31:18.326Z,72.30
2018-10-03T17:33:47.224Z,72.00
2018-10-03T17:36:16.303Z,72.20
2018-10-03T17:38:45.373Z,72.30
2018-10-03T17:41:14.656Z,72.20
2018-10-03T17:43:44.627Z,72.30
2018-10-03T17:46:13.905Z,72.60
2018-10-03T17:48:43.061Z,72.40
2018-10-03T17:51:12.298Z,72.40
2018-10-03T17:53:41.403Z,72.60
2018-10-03T17:56:10.578Z,72.50
2018-10-03T17:58:39.704Z,72.30
2018-10-03T18:01:08.768Z,72.70
2018-10-03T18:03:38.202Z,72.50
2018-10-03T18:06:07.345Z,72.50
2018-10-03T18:08:38.196Z,72.50
2018-10-03T18:11:07.643Z,72.60
2018-10-03T18:13:37.188Z,72.50
2018-10-03T18:16:06.162Z,72.60
2018-10-03T18:18:35.173Z,72.40
2018-10-03T18:21:05.005Z,72.50
2018-10-03T18:23:34.281Z,72.60
2018-10-03T18:26:03.275Z,72.60
2018-10-03T18:28:32.529Z,72.50
2018-10-03T18:31:01.593Z,72.50
2018-10-03T18:33:30.765Z,72.50
2018-10-03T18:36:00.371Z,72.50
2018-10-03T18:38:29.585Z,72.70
2018-10-03T18:40:58.794Z,72.80
2018-10-03T18:43:28.020Z,72.70
2018-10-03T18:45:57.107Z,73.20
2018-10-03T18:48:26.250Z,72.70
2018-10-03T18:50:55.381Z,72.80
2018-10-03T18:53:24.539Z,72.80
2018-10-03T18:55:53.935Z,72.70
2018-10-03T18:58:23.518Z,72.80
2018-10-03T19:00:54.610Z,72.90
2018-10-03T19:03:24.150Z,72.90
2018-10-03T19:05:53.630Z,72.80
2018-10-03T19:08:22.496Z,72.90
2018-10-03T19:10:51.798Z,73.00
2018-10-03T19:13:20.938Z,73.10
2018-10-03T19:15:50.169Z,72.90
2018-10-03T19:18:19.173Z,72.90
2018-10-03T19:20:48.797Z,72.90
2018-10-03T19:23:18.101Z,73.10
2018-10-03T19:25:47.625Z,73.30
2018-10-03T19:28:16.844Z,73.40
2018-10-03T19:30:46.276Z,74.10
2018-10-03T19:33:15.607Z,73.30
2018-10-03T19:35:44.917Z,73.30
2018-10-03T19:38:14.145Z,73.30
2018-10-03T19:40:43.131Z,73.50
2018-10-03T19:43:12.222Z,73.60
2018-10-03T19:45:41.757Z,73.60
2018-10-03T19:48:11.184Z,73.60
2018-10-03T19:50:40.275Z,73.50
2018-10-03T19:53:09.705Z,73.60
2018-10-03T19:55:38.653Z,73.50
2018-10-03T19:58:07.837Z,73.70
2018-10-03T20:00:37.264Z,73.60
2018-10-03T20:03:06.713Z,73.50
2018-10-03T20:05:35.961Z,73.90
2018-10-03T20:08:05.768Z,73.70
2018-10-03T20:10:35.001Z,73.80
2018-10-03T20:13:04.817Z,73.70
2018-10-03T20:15:34.100Z,74.00
2018-10-03T20:18:03.542Z,74.90
2018-10-03T20:20:32.925Z,75.20
2018-10-03T20:23:02.312Z,75.20
2018-10-03T20:25:31.533Z,75.20
2018-10-03T20:28:00.771Z,75.30
2018-10-03T20:30:29.742Z,75.40
2018-10-03T20:32:59.419Z,75.30
2018-10-03T20:35:28.542Z,75.40
2018-10-03T20:37:58.044Z,75.50
2018-10-03T20:40:26.949Z,75.40
2018-10-03T20:42:56.190Z,75.90
2018-10-03T20:45:25.512Z,75.40
2018-10-03T20:47:54.758Z,75.50
2018-10-03T20:50:24.651Z,75.50
2018-10-03T20:52:54.097Z,75.60
2018-10-03T20:55:23.642Z,75.70
2018-10-03T20:57:52.785Z,75.80
2018-10-03T21:00:22.387Z,75.60
2018-10-03T21:02:51.690Z,75.70
2018-10-03T21:05:20.872Z,75.90
2018-10-03T21:07:50.173Z,75.80
2018-10-03T21:10:19.227Z,76.10
2018-10-03T21:12:48.905Z,76.00
2018-10-03T21:15:18.580Z,76.10
2018-10-03T21:17:48.178Z,76.00
2018-10-03T21:20:17.709Z,76.10
2018-10-03T21:22:47.271Z,76.20
2018-10-03T21:25:16.980Z,76.30
2018-10-03T21:27:46.413Z,76.30
2018-10-03T21:30:15.558Z,76.20
2018-10-03T21:32:44.767Z,76.30
2018-10-03T21:35:13.864Z,76.30
2018-10-03T21:37:42.783Z,76.40
2018-10-03T21:40:11.994Z,76.40
2018-10-03T21:42:41.450Z,76.60
2018-10-03T21:45:10.854Z,76.30
2018-10-03T21:47:40.529Z,76.60
2018-10-03T21:50:09.802Z,76.50
2018-10-03T21:52:39.086Z,76.50
2018-10-03T21:55:08.727Z,76.40
2018-10-03T21:57:37.805Z,76.60
2018-10-03T22:00:08.014Z,76.70
2018-10-03T22:02:37.374Z,76.70
2018-10-03T22:05:09.194Z,76.80
2018-10-03T22:07:39.310Z,76.80
2018-10-03T22:10:08.510Z,77.20
2018-10-03T22:12:37.745Z,77.00
2018-10-03T22:15:07.140Z,77.30
2018-10-03T22:17:39.229Z,77.00
2018-10-03T22:20:08.783Z,77.10
2018-10-03T22:22:38.007Z,77.20
2018-10-03T22:25:07.379Z,77.30
2018-10-03T22:27:36.531Z,77.10
2018-10-03T22:30:05.813Z,77.00
2018-10-03T22:32:35.157Z,77.10
2018-10-03T22:35:04.165Z,77.10
2018-10-03T22:37:33.102Z,77.20
2018-10-03T22:40:02.345Z,77.10
2018-10-03T22:42:31.468Z,77.20
2018-10-03T22:45:00.691Z,77.20
2018-10-03T22:47:29.801Z,77.40
2018-10-03T22:49:59.043Z,77.30
2018-10-03T22:52:28.367Z,77.30
2018-10-03T22:54:57.654Z,77.40
2018-10-03T22:57:26.874Z,77.60
2018-10-03T22:59:55.917Z,77.50
2018-10-03T23:02:24.925Z,77.50
2018-10-03T23:04:53.890Z,77.60
2018-10-03T23:07:23.211Z,77.70
2018-10-03T23:09:52.349Z,77.80
2018-10-03T23:12:21.417Z,77.80
2018-10-03T23:14:50.517Z,77.70
2018-10-03T23:17:19.758Z,77.90
2018-10-03T23:19:49.077Z,77.80
2018-10-03T23:22:18.373Z,78.10
2018-10-03T23:24:47.610Z,78.20
2018-10-03T23:27:16.747Z,78.30
2018-10-03T23:29:45.919Z,78.30
2018-10-03T23:32:14.951Z,78.40
2018-10-03T23:34:43.889Z,78.00
2018-10-03T23:37:12.855Z,78.20
2018-10-03T23:39:41.946Z,78.40
2018-10-03T23:42:10.890Z,78.20
2018-10-03T23:44:40.045Z,78.40
2018-10-03T23:47:09.711Z,78.50
2018-10-03T23:49:39.627Z,78.70
2018-10-03T23:52:09.057Z,78.70
2018-10-03T23:54:38.116Z,78.60
2018-10-03T23:57:07.918Z,78.50
2018-10-03T23:59:36.905Z,78.70
